Terminal Aerodrome Forecast
Issued by NWS Pendleton, OR

Home | Current Version | Previous Version | Text Only | Print | Product List | Glossary On
Versions: 1 2 3 4 5 6 7 8 9 10 11 12 13
805
FTUS46 KPDT 211720
TAFPDT
TAF
KPDT 211720Z 2118/2218 33004KT P6SM FEW300
     FM212200 36007KT P6SM FEW300
     FM220400 13005KT P6SM FEW300=

USA.gov is the U.S. government's official web portal to all federal, state and local government web resources and services.